Time;durP1;ratioP1;P1;durP2;ratioP2;P2;SDS_P1;SDS_P2;PMS_P1;PMS_P2;Temp;Humidity;BMP_temperature;BMP_pressure;BME280_temperature;BME280_humidity;BME280_pressure;Samples;Min_cycle;Max_cycle;Signal;HPM_P1;HPM_P2
2023/08/26 00:01:40;;;;;;;8.32;4.80;;;;;;;25.97;55.70;98825.44;4342759;33;33575;-90
2023/08/26 00:04:08;;;;;;;11.38;5.12;;;;;;;25.91;55.81;98831.09;4344010;33;33466;-90
2023/08/26 00:06:36;;;;;;;11.57;5.18;;;;;;;25.95;55.90;98832.66;4343629;33;34351;-90
2023/08/26 00:09:03;;;;;;;10.88;4.72;;;;;;;25.84;56.11;98829.72;4355354;32;34724;-90
2023/08/26 00:11:31;;;;;;;8.57;4.55;;;;;;;25.84;56.00;98829.72;4331176;33;33698;-89
2023/08/26 00:13:58;;;;;;;8.88;4.57;;;;;;;25.93;55.76;98821.25;4331218;33;34704;-89
2023/08/26 00:16:26;;;;;;;8.25;4.75;;;;;;;25.96;55.66;98819.28;4331102;33;33944;-90
2023/08/26 00:18:54;;;;;;;8.68;4.65;;;;;;;25.82;55.64;98827.16;4320767;33;33950;-90
2023/08/26 00:21:22;;;;;;;12.02;4.75;;;;;;;25.89;55.70;98819.69;4346277;33;33273;-89
2023/08/26 00:23:49;;;;;;;8.63;4.37;;;;;;;25.97;55.64;98812.16;4332642;33;34352;-90
2023/08/26 00:26:17;;;;;;;11.77;5.00;;;;;;;26.03;55.21;98803.87;4320764;33;33401;-89
2023/08/26 00:28:45;;;;;;;11.38;5.28;;;;;;;26.01;55.11;98804.87;4346392;33;34281;-90
2023/08/26 00:31:12;;;;;;;8.27;4.20;;;;;;;25.84;55.64;98801.38;4332593;33;33403;-89
2023/08/26 00:33:40;;;;;;;8.02;4.25;;;;;;;25.86;55.77;98819.87;4332793;33;34151;-89
2023/08/26 00:36:08;;;;;;;10.32;4.47;;;;;;;25.92;55.67;98822.19;4332603;33;33439;-89
2023/08/26 00:38:35;;;;;;;9.13;4.70;;;;;;;25.89;55.95;98817.03;4346175;33;34827;-90
2023/08/26 00:41:03;;;;;;;9.68;4.82;;;;;;;25.99;55.78;98820.91;4346373;33;33576;-90
2023/08/26 00:43:31;;;;;;;12.40;5.18;;;;;;;25.93;55.92;98815.94;4346442;33;33748;-89
2023/08/26 00:45:59;;;;;;;8.85;4.97;;;;;;;25.91;56.17;98823.12;4332163;33;32477;-90
2023/08/26 00:48:27;;;;;;;12.45;5.65;;;;;;;25.90;56.16;98816.94;4319893;33;33626;-89
2023/08/26 00:50:56;;;;;;;10.90;5.40;;;;;;;26.00;55.94;98812.00;4344476;33;34350;-89
2023/08/26 00:53:23;;;;;;;9.63;4.78;;;;;;;26.05;55.78;98811.72;4331723;33;34375;-90
2023/08/26 00:55:51;;;;;;;14.98;5.47;;;;;;;26.01;55.94;98815.50;4344475;33;34704;-90
2023/08/26 00:58:20;;;;;;;10.13;5.28;;;;;;;25.86;56.75;98827.84;4319638;33;33587;-90
2023/08/26 01:00:47;;;;;;;10.65;5.25;;;;;;;25.76;57.07;98838.09;4356092;32;33980;-89
2023/08/26 01:03:15;;;;;;;12.70;5.32;;;;;;;25.84;56.76;98835.91;4307738;33;32627;-89
2023/08/26 01:05:43;;;;;;;12.07;5.03;;;;;;;25.91;56.95;98845.25;4331598;33;32252;-90
2023/08/26 01:08:12;;;;;;;10.25;5.65;;;;;;;25.98;56.84;98853.72;4319899;33;33580;-89
2023/08/26 01:11:04;;;;;;;12.57;5.78;;;;;;;25.98;57.07;98852.84;4356202;32;34401;-89
2023/08/26 01:13:58;;;;;;;8.23;5.55;;;;;;;26.06;57.21;98854.12;4331623;33;33547;-89
2023/08/26 01:16:26;;;;;;;11.25;5.03;;;;;;;26.12;57.32;98852.97;4331591;33;33956;-90
2023/08/26 01:18:54;;;;;;;8.75;5.87;;;;;;;25.75;58.69;98856.75;4355740;32;34050;-90
2023/08/26 01:21:31;;;;;;;9.80;6.00;;;;;;;25.75;58.45;98857.59;4331817;33;34333;-89
2023/08/26 01:23:59;;;;;;;8.73;5.75;;;;;;;25.93;57.90;98851.31;4355848;32;34225;-89
2023/08/26 01:26:26;;;;;;;11.82;5.75;;;;;;;26.02;57.59;98849.09;4332048;33;33311;-89
2023/08/26 01:28:54;;;;;;;10.65;5.97;;;;;;;25.94;57.78;98844.19;4330797;33;33913;-89
2023/08/26 01:31:22;;;;;;;8.95;5.78;;;;;;;25.90;57.67;98846.16;4345190;33;33368;-90
2023/08/26 01:34:02;;;;;;;9.48;6.20;;;;;;;25.86;57.65;98844.63;4332223;33;32735;-89
2023/08/26 01:36:31;;;;;;;11.48;5.95;;;;;;;25.87;57.65;98841.00;4331665;33;34765;-90
2023/08/26 01:38:59;;;;;;;12.95;5.78;;;;;;;25.88;57.34;98844.56;4331265;33;34839;-89
2023/08/26 01:41:27;;;;;;;11.18;5.90;;;;;;;25.80;57.80;98844.09;4331528;33;34310;-89
2023/08/26 01:43:55;;;;;;;9.80;5.82;;;;;;;25.74;58.09;98829.34;4318928;33;33857;-90
2023/08/26 01:46:39;;;;;;;12.65;5.45;;;;;;;25.86;57.67;98818.06;4328804;33;88159;-90
2023/08/26 01:49:06;;;;;;;10.80;6.37;;;;;;;25.97;57.58;98809.50;4344309;33;34662;-90
2023/08/26 01:51:34;;;;;;;12.93;6.35;;;;;;;25.76;57.96;98815.97;4320417;33;32881;-90
2023/08/26 01:54:05;;;;;;;10.40;5.60;;;;;;;25.75;57.83;98820.41;4332544;33;33367;-89
2023/08/26 01:56:33;;;;;;;8.75;5.78;;;;;;;25.81;57.82;98821.94;4331812;33;34683;-90
2023/08/26 01:59:01;;;;;;;13.62;6.20;;;;;;;25.77;57.66;98825.66;4332282;33;34912;-90
2023/08/26 02:01:29;;;;;;;10.77;5.78;;;;;;;25.75;57.55;98819.56;4320221;33;32620;-89
2023/08/26 02:03:57;;;;;;;11.50;5.80;;;;;;;25.70;57.56;98818.03;4320134;33;33158;-90
2023/08/26 02:06:24;;;;;;;11.50;6.00;;;;;;;25.73;57.54;98820.53;4345540;33;33868;-89
2023/08/26 02:08:53;;;;;;;12.30;5.78;;;;;;;25.72;57.60;98825.91;4345784;33;33881;-89
2023/08/26 02:11:21;;;;;;;9.80;6.30;;;;;;;25.77;57.65;98817.69;4345966;33;33296;-90
2023/08/26 02:13:48;;;;;;;8.40;5.40;;;;;;;25.45;59.30;98817.63;4345573;33;33501;-90
2023/08/26 02:16:16;;;;;;;8.75;5.60;;;;;;;25.44;59.30;98808.81;4331977;33;33671;-90
2023/08/26 02:18:46;;;;;;;10.38;6.22;;;;;;;25.60;58.91;98800.88;4355870;32;33785;-90
2023/08/26 02:21:14;;;;;;;14.23;6.60;;;;;;;25.64;58.67;98797.09;4329142;33;32601;-90
2023/08/26 02:23:42;;;;;;;11.18;5.80;;;;;;;25.62;58.77;98796.34;4317619;33;33949;-90
2023/08/26 02:26:10;;;;;;;11.68;6.40;;;;;;;25.53;59.10;98803.94;4331114;33;34814;-90
2023/08/26 02:28:37;;;;;;;10.85;6.28;;;;;;;25.57;58.92;98803.72;4329419;33;33722;-90
2023/08/26 02:31:06;;;;;;;10.52;6.68;;;;;;;25.60;58.62;98805.31;4330650;33;33314;-89
2023/08/26 02:33:34;;;;;;;11.65;6.18;;;;;;;25.52;58.92;98797.78;4341333;33;34720;-90
2023/08/26 02:36:01;;;;;;;14.68;6.90;;;;;;;25.47;58.76;98792.72;4332332;33;33537;-90
2023/08/26 02:38:31;;;;;;;11.18;6.18;;;;;;;25.51;58.79;98796.06;4331674;33;33696;-90
2023/08/26 02:41:00;;;;;;;9.27;5.90;;;;;;;25.50;58.69;98796.16;4331976;33;33454;-90
2023/08/26 02:43:28;;;;;;;13.93;6.32;;;;;;;25.32;59.16;98795.34;4345160;33;34272;-90
2023/08/26 02:45:56;;;;;;;10.20;6.55;;;;;;;25.26;59.37;98785.06;4331841;33;34833;-89
2023/08/26 02:48:25;;;;;;;10.20;6.78;;;;;;;25.34;59.22;98793.47;4332171;33;34178;-90
2023/08/26 02:51:01;;;;;;;13.73;6.90;;;;;;;25.21;59.51;98787.97;4332220;33;33253;-90
2023/08/26 02:53:30;;;;;;;11.25;6.78;;;;;;;25.19;59.59;98801.31;4331897;33;33399;-90
2023/08/26 02:55:58;;;;;;;8.88;6.43;;;;;;;25.27;59.27;98800.03;4345994;33;33477;-90
2023/08/26 02:58:26;;;;;;;10.90;5.85;;;;;;;25.11;59.84;98808.78;4307742;33;33337;-90
2023/08/26 03:00:56;;;;;;;10.88;5.95;;;;;;;25.17;59.51;98805.84;4332162;33;33724;-90
2023/08/26 03:03:24;;;;;;;13.02;6.18;;;;;;;25.20;59.23;98803.03;4345128;33;33980;-90
2023/08/26 03:05:57;;;;;;;11.32;5.95;;;;;;;25.10;59.62;98807.09;4331918;33;34877;-90
2023/08/26 03:08:25;;;;;;;10.77;6.35;;;;;;;25.12;59.46;98804.37;4345245;33;33826;-90
2023/08/26 03:11:00;;;;;;;13.15;5.90;;;;;;;25.14;59.21;98805.13;4331732;33;33436;-90
2023/08/26 03:13:29;;;;;;;12.23;6.28;;;;;;;25.19;58.89;98803.97;4331727;33;34704;-89
2023/08/26 03:15:57;;;;;;;9.10;5.55;;;;;;;24.99;59.30;98801.44;4331295;33;33794;-90
2023/08/26 03:18:25;;;;;;;8.73;5.37;;;;;;;25.11;58.90;98797.34;4331672;33;33742;-90
2023/08/26 03:20:53;;;;;;;9.80;5.55;;;;;;;25.16;58.59;98804.13;4319771;33;32289;-89
2023/08/26 03:23:20;;;;;;;10.98;5.25;;;;;;;25.13;58.59;98803.44;4304576;33;33497;-90
2023/08/26 03:25:48;;;;;;;9.95;5.37;;;;;;;25.18;58.23;98802.22;4328943;33;33958;-90
2023/08/26 03:28:17;;;;;;;12.23;5.72;;;;;;;24.97;58.27;98801.53;4344296;33;34181;-90
2023/08/26 03:30:45;;;;;;;12.82;5.12;;;;;;;25.02;58.43;98801.31;4331859;33;35086;-90
2023/08/26 03:33:12;;;;;;;11.75;5.90;;;;;;;25.04;58.25;98802.09;4345041;33;33592;-90
2023/08/26 03:35:40;;;;;;;11.25;5.50;;;;;;;25.07;57.85;98804.56;4331610;33;34089;-90
2023/08/26 03:38:08;;;;;;;11.88;5.37;;;;;;;25.11;57.52;98798.19;4331557;33;34899;-90
2023/08/26 03:40:40;;;;;;;8.55;4.65;;;;;;;25.10;57.34;98801.78;4330859;33;33368;-90
2023/08/26 03:43:07;;;;;;;11.32;5.25;;;;;;;25.13;57.15;98806.09;4319244;33;32377;-90
2023/08/26 03:45:35;;;;;;;10.88;5.05;;;;;;;25.03;57.27;98803.00;4331096;33;34623;-90
2023/08/26 03:48:04;;;;;;;8.90;4.53;;;;;;;25.14;56.83;98805.13;4331284;33;34744;-92
2023/08/26 03:50:32;;;;;;;7.35;4.32;;;;;;;25.11;56.87;98795.53;4355680;32;33169;-90
2023/08/26 03:52:59;;;;;;;11.43;5.10;;;;;;;25.04;56.96;98802.09;4346659;33;33607;-90
2023/08/26 03:55:27;;;;;;;9.48;4.60;;;;;;;25.05;56.95;98795.84;4320932;33;35195;-90
2023/08/26 03:57:55;;;;;;;10.05;5.40;;;;;;;24.97;57.15;98795.38;4333028;33;33389;-89
2023/08/26 04:00:23;;;;;;;10.55;5.40;;;;;;;24.97;57.21;98790.94;4333138;33;34274;-90
2023/08/26 04:02:51;;;;;;;10.25;5.15;;;;;;;25.00;57.07;98789.91;4308668;33;32561;-90
2023/08/26 04:05:18;;;;;;;12.32;5.18;;;;;;;25.05;56.91;98793.19;4346584;33;34012;-90
2023/08/26 04:07:46;;;;;;;10.45;4.70;;;;;;;25.03;56.93;98784.44;4346199;33;33957;-90
2023/08/26 04:10:13;;;;;;;10.55;4.65;;;;;;;24.99;57.00;98788.19;4332779;33;33031;-90
2023/08/26 04:12:41;;;;;;;10.52;5.28;;;;;;;24.99;56.67;98793.50;4346151;33;34596;-90
2023/08/26 04:15:09;;;;;;;9.18;5.00;;;;;;;24.96;56.78;98793.66;4333423;32;33017;-90
2023/08/26 04:17:37;;;;;;;8.88;4.47;;;;;;;24.90;57.18;98791.34;4346073;33;34013;-90
2023/08/26 04:20:06;;;;;;;9.48;4.55;;;;;;;24.92;57.04;98797.41;4346432;33;34029;-89
2023/08/26 04:22:34;;;;;;;10.57;4.95;;;;;;;24.93;57.14;98799.13;4346514;33;33752;-89
2023/08/26 04:25:01;;;;;;;8.70;5.03;;;;;;;24.97;57.02;98800.69;4346149;33;34362;-89
2023/08/26 04:27:31;;;;;;;8.82;4.78;;;;;;;25.03;56.93;98797.69;4332889;33;32638;-89
2023/08/26 04:30:00;;;;;;;9.80;5.35;;;;;;;25.08;56.77;98798.34;4332803;33;32836;-90
2023/08/26 04:32:29;;;;;;;10.02;4.75;;;;;;;25.12;56.66;98809.69;4333269;33;34730;-89
2023/08/26 04:34:58;;;;;;;8.50;4.55;;;;;;;25.20;56.62;98804.81;4357307;32;35114;-89
2023/08/26 04:37:25;;;;;;;12.95;5.35;;;;;;;25.09;57.75;98805.34;4345840;33;34096;-89
2023/08/26 04:39:53;;;;;;;8.85;4.72;;;;;;;25.37;57.60;98799.47;4332455;33;33777;-90
2023/08/26 04:42:20;;;;;;;11.98;5.10;;;;;;;25.73;57.01;98807.25;4345146;32;33290;-89
2023/08/26 04:44:48;;;;;;;10.20;4.72;;;;;;;26.02;56.10;98794.16;4320750;33;33527;-89
2023/08/26 04:47:16;;;;;;;9.40;4.62;;;;;;;26.20;55.65;98800.22;4332515;33;32944;-90
2023/08/26 04:49:44;;;;;;;13.27;5.18;;;;;;;26.50;54.93;98792.31;4344793;33;33735;-89
2023/08/26 04:52:11;;;;;;;10.75;4.78;;;;;;;26.65;54.95;98807.38;4345818;33;33872;-90
2023/08/26 04:54:39;;;;;;;9.98;5.68;;;;;;;26.84;54.37;98801.84;4346266;33;33880;-90
2023/08/26 04:57:07;;;;;;;8.95;4.78;;;;;;;27.00;53.55;98799.09;4345948;33;33761;-90
2023/08/26 04:59:34;;;;;;;9.88;4.62;;;;;;;27.20;52.96;98802.38;4345683;33;33705;-90
2023/08/26 05:02:03;;;;;;;8.52;4.80;;;;;;;27.39;53.04;98797.66;4345978;33;33781;-90
2023/08/26 05:04:31;;;;;;;10.60;5.15;;;;;;;27.49;52.12;98798.78;4332833;33;33895;-90
2023/08/26 05:06:58;;;;;;;8.98;4.78;;;;;;;27.72;51.98;98799.16;4345697;33;33597;-90
2023/08/26 05:09:28;;;;;;;12.73;5.10;;;;;;;27.83;51.73;98794.88;4332652;33;34421;-90
2023/08/26 05:11:57;;;;;;;7.12;4.55;;;;;;;28.01;50.73;98790.19;4357039;32;33550;-90
2023/08/26 05:14:25;;;;;;;8.57;4.43;;;;;;;28.25;50.89;98800.19;4345823;33;33728;-92
2023/08/26 05:16:54;;;;;;;7.43;4.40;;;;;;;28.47;50.19;98795.19;4329468;33;34131;-90
2023/08/26 05:19:22;;;;;;;11.10;5.25;;;;;;;28.66;50.43;98796.63;4345413;33;33573;-90
2023/08/26 05:21:50;;;;;;;9.40;5.07;;;;;;;28.88;49.88;98796.03;4345461;33;34642;-89
2023/08/26 05:24:17;;;;;;;11.55;5.03;;;;;;;28.82;48.74;98791.97;4332611;33;34580;-90
2023/08/26 05:26:46;;;;;;;11.10;5.22;;;;;;;28.70;49.02;98793.66;4346259;33;34024;-90
2023/08/26 05:29:13;;;;;;;10.13;5.03;;;;;;;28.99;47.90;98793.53;4332567;33;33445;-90
2023/08/26 05:31:42;;;;;;;15.25;5.30;;;;;;;28.88;48.56;98798.72;4332818;33;34147;-90
2023/08/26 05:34:09;;;;;;;12.95;5.47;;;;;;;28.72;48.08;98798.91;4332916;33;34609;-89
2023/08/26 05:36:37;;;;;;;8.02;4.95;;;;;;;28.91;48.70;98801.16;4332274;33;33944;-91
2023/08/26 05:39:04;;;;;;;12.37;5.07;;;;;;;28.87;49.41;98803.19;4346229;33;33822;-91
2023/08/26 05:41:33;;;;;;;12.77;6.00;;;;;;;29.20;48.70;98807.19;4346069;33;34641;-88
2023/08/26 05:44:00;;;;;;;11.63;5.55;;;;;;;29.07;48.95;98810.72;4345942;33;34151;-91
2023/08/26 05:46:28;;;;;;;11.38;5.55;;;;;;;29.03;49.20;98806.53;4332095;33;34399;-90
2023/08/26 05:48:56;;;;;;;10.75;5.37;;;;;;;29.43;47.15;98803.75;4346054;33;33295;-91
2023/08/26 05:51:23;;;;;;;15.77;5.82;;;;;;;28.84;48.36;98808.72;4345928;33;33956;-91
2023/08/26 05:53:51;;;;;;;9.35;5.68;;;;;;;29.03;48.09;98813.69;4356867;32;33768;-90
2023/08/26 05:56:20;;;;;;;15.82;5.95;;;;;;;29.03;48.67;98816.38;4345413;33;34000;-93
2023/08/26 05:58:47;;;;;;;12.40;5.97;;;;;;;28.96;49.16;98815.91;4332508;33;33598;-90
2023/08/26 06:01:15;;;;;;;10.27;5.45;;;;;;;28.04;50.94;98816.66;4332118;33;32522;-90
2023/08/26 06:03:43;;;;;;;12.48;5.55;;;;;;;28.66;50.00;98820.63;4356689;32;34384;-88
2023/08/26 06:06:11;;;;;;;10.43;5.50;;;;;;;28.34;50.65;98823.59;4345778;33;34142;-88
2023/08/26 06:08:38;;;;;;;8.05;5.00;;;;;;;28.13;50.59;98820.50;4346022;33;32684;-89
2023/08/26 06:11:06;;;;;;;13.20;6.10;;;;;;;28.34;50.90;98828.94;4345647;33;34758;-88
2023/08/26 06:13:33;;;;;;;14.73;6.35;;;;;;;28.30;52.59;98830.94;4344864;33;33989;-91
2023/08/26 06:16:01;;;;;;;8.60;5.57;;;;;;;27.89;52.64;98829.13;4345246;33;33557;-89
2023/08/26 06:18:29;;;;;;;10.25;5.68;;;;;;;28.21;51.13;98830.69;4332478;33;34308;-89
2023/08/26 06:20:57;;;;;;;9.68;5.82;;;;;;;28.12;51.37;98833.00;4345578;33;33935;-90
2023/08/26 06:23:25;;;;;;;12.90;5.40;;;;;;;28.14;51.49;98832.88;4331888;33;34189;-89
2023/08/26 06:25:54;;;;;;;12.98;6.03;;;;;;;28.33;51.70;98832.53;4332315;33;34180;-87
2023/08/26 06:28:23;;;;;;;13.48;5.78;;;;;;;28.12;51.75;98846.31;4345923;33;33737;-88
2023/08/26 06:30:56;;;;;;;11.32;5.87;;;;;;;28.33;52.47;98837.88;4345793;33;33708;-88
2023/08/26 06:33:27;;;;;;;10.57;5.90;;;;;;;28.41;51.79;98835.59;4332415;33;34612;-87
2023/08/26 06:35:54;;;;;;;11.43;6.28;;;;;;;28.53;52.57;98839.28;4345033;33;34053;-88
2023/08/26 06:38:22;;;;;;;12.77;5.53;;;;;;;28.82;51.20;98843.50;4346540;32;34530;-88
2023/08/26 06:40:57;;;;;;;11.68;5.90;;;;;;;28.78;52.13;98843.81;4345718;33;33695;-89
2023/08/26 06:43:24;;;;;;;9.80;6.35;;;;;;;28.72;53.29;98846.91;4332132;33;34145;-88
2023/08/26 06:45:52;;;;;;;13.20;6.75;;;;;;;28.69;52.47;98841.78;4345187;33;34016;-90
2023/08/26 06:48:19;;;;;;;13.40;6.22;;;;;;;28.99;52.03;98850.41;4345109;33;33457;-89
2023/08/26 06:50:48;;;;;;;11.20;6.62;;;;;;;28.84;53.00;98846.09;4345584;33;34108;-89
2023/08/26 06:53:21;;;;;;;18.23;6.68;;;;;;;29.02;52.26;98855.56;4345185;33;34809;-89
2023/08/26 06:55:50;;;;;;;16.58;7.28;;;;;;;29.04;52.68;98856.28;4332742;33;33892;-88
2023/08/26 06:58:19;;;;;;;10.60;6.32;;;;;;;28.87;52.48;98853.88;4331809;33;33752;-89
2023/08/26 07:00:47;;;;;;;10.93;6.78;;;;;;;29.01;51.79;98851.16;4344819;33;33520;-86
2023/08/26 07:03:15;;;;;;;16.80;6.75;;;;;;;28.81;52.75;98848.94;4345248;33;34762;-86
2023/08/26 07:05:44;;;;;;;12.82;7.12;;;;;;;28.97;53.21;98854.97;4345214;33;34225;-86
2023/08/26 07:08:14;;;;;;;14.73;8.05;;;;;;;29.02;53.56;98858.22;4345039;33;34537;-86
2023/08/26 07:10:44;;;;;;;10.10;6.05;;;;;;;29.32;51.34;98849.03;4344603;33;34036;-86
2023/08/26 07:13:12;;;;;;;17.80;6.90;;;;;;;29.45;52.47;98857.94;4348673;33;33806;-93
2023/08/26 07:15:40;;;;;;;15.85;7.85;;;;;;;29.52;51.44;98864.56;4334765;33;34639;-89
2023/08/26 07:18:08;;;;;;;13.57;7.20;;;;;;;29.64;51.06;98859.34;4334237;33;34652;-88
2023/08/26 07:20:35;;;;;;;16.95;8.00;;;;;;;29.94;49.79;98854.47;4333279;33;33958;-87
2023/08/26 07:23:03;;;;;;;13.15;7.45;;;;;;;30.15;48.76;98849.38;4349944;33;34044;-86
2023/08/26 07:25:31;;;;;;;13.23;7.80;;;;;;;30.04;50.73;98858.22;4337540;33;34941;-90
2023/08/26 07:27:59;;;;;;;14.80;6.85;;;;;;;30.30;47.92;98852.78;4340563;33;33626;-86
2023/08/26 07:30:27;;;;;;;12.65;7.00;;;;;;;30.59;48.19;98852.47;4353019;33;33520;-88
2023/08/26 07:32:54;;;;;;;12.35;7.47;;;;;;;30.16;49.49;98852.94;4359210;32;34105;-87
2023/08/26 07:35:22;;;;;;;13.48;8.20;;;;;;;30.36;46.38;98859.53;4346197;33;34902;-93
2023/08/26 07:37:49;;;;;;;14.50;8.30;;;;;;;30.14;46.61;98852.19;4347916;33;33759;-90
2023/08/26 07:40:17;;;;;;;16.33;7.60;;;;;;;30.39;46.34;98852.13;4345916;33;34461;-87
2023/08/26 07:42:45;;;;;;;11.27;7.18;;;;;;;30.33;46.75;98847.22;4347079;33;33892;-87
2023/08/26 07:45:12;;;;;;;13.45;7.90;;;;;;;30.72;46.71;98851.44;4348207;33;34112;-93
2023/08/26 07:47:42;;;;;;;15.00;8.90;;;;;;;30.85;46.63;98846.06;4330393;33;33628;-91
2023/08/26 07:50:12;;;;;;;15.15;8.43;;;;;;;30.77;45.42;98848.47;4330961;33;33575;-92
2023/08/26 07:52:40;;;;;;;12.60;8.07;;;;;;;31.15;46.30;98847.34;4331039;33;35056;-94
2023/08/26 07:55:08;;;;;;;15.02;7.70;;;;;;;31.23;43.96;98837.75;4333633;33;35006;-89
2023/08/26 07:57:35;;;;;;;14.90;8.05;;;;;;;31.53;44.95;98843.56;4354806;32;33965;-87
2023/08/26 08:00:03;;;;;;;11.60;7.93;;;;;;;31.42;46.40;98841.72;4318075;33;33759;-88
2023/08/26 08:02:38;;;;;;;13.30;7.80;;;;;;;31.72;44.35;98828.56;4315421;33;34134;-90
2023/08/26 08:05:06;;;;;;;12.70;7.70;;;;;;;31.97;42.48;98830.16;4315936;33;34867;-91
2023/08/26 08:07:34;;;;;;;10.52;7.35;;;;;;;31.42;43.70;98837.19;4304656;33;32898;-87
2023/08/26 08:10:01;;;;;;;11.95;8.05;;;;;;;31.51;44.46;98846.34;4332266;33;33606;-92
2023/08/26 08:12:29;;;;;;;14.00;7.78;;;;;;;31.70;44.65;98835.00;4329192;33;34816;-86
2023/08/26 08:14:56;;;;;;;13.25;7.50;;;;;;;32.00;43.36;98834.41;4329997;33;34105;-91
2023/08/26 08:17:24;;;;;;;10.85;7.65;;;;;;;31.46;43.67;98835.13;4329862;33;34261;-95
2023/08/26 08:19:52;;;;;;;15.23;8.18;;;;;;;31.40;44.03;98825.72;4331124;33;34727;-93
2023/08/26 08:22:33;;;;;;;13.35;7.45;;;;;;;31.74;43.77;98821.25;4353185;32;35056;-87
2023/08/26 08:25:02;;;;;;;14.93;7.93;;;;;;;31.67;43.47;98824.53;4330635;33;33781;-89
2023/08/26 08:27:31;;;;;;;13.60;7.87;;;;;;;31.78;42.77;98824.53;4342126;33;32883;-87
2023/08/26 08:29:59;;;;;;;12.95;8.60;;;;;;;32.07;42.94;98826.72;4329142;33;34763;-86
2023/08/26 08:32:27;;;;;;;14.77;7.87;;;;;;;32.14;43.16;98822.56;4330447;33;33805;-94
2023/08/26 08:34:55;;;;;;;14.85;7.95;;;;;;;32.06;42.63;98825.03;4332444;33;33691;-90
2023/08/26 08:37:22;;;;;;;14.13;8.57;;;;;;;32.18;42.72;98824.03;4332498;33;34587;-89
2023/08/26 08:39:50;;;;;;;13.75;8.82;;;;;;;31.89;43.62;98826.38;4333357;33;34843;-86
2023/08/26 08:42:18;;;;;;;12.57;8.30;;;;;;;31.65;43.17;98823.81;4334078;33;34190;-85
2023/08/26 08:44:48;;;;;;;13.10;8.30;;;;;;;31.91;43.65;98827.13;4329605;33;34269;-86
2023/08/26 08:47:16;;;;;;;14.55;8.70;;;;;;;31.88;43.56;98822.84;4355433;32;33513;-92
2023/08/26 08:49:44;;;;;;;19.23;9.77;;;;;;;32.04;42.94;98817.09;4332622;33;34820;-85
2023/08/26 08:52:11;;;;;;;16.40;9.25;;;;;;;31.78;44.23;98821.84;4331591;33;34054;-90
2023/08/26 08:54:40;;;;;;;16.67;8.95;;;;;;;32.21;44.15;98821.09;4330152;33;33456;-92
2023/08/26 08:57:12;;;;;;;13.07;9.07;;;;;;;32.19;44.59;98820.34;4331907;33;34125;-85
2023/08/26 08:59:40;;;;;;;14.40;9.30;;;;;;;32.55;42.68;98818.34;4330648;33;34837;-88
2023/08/26 09:02:09;;;;;;;13.02;9.07;;;;;;;32.56;42.79;98817.34;4330770;33;34142;-90
2023/08/26 09:04:36;;;;;;;13.60;9.23;;;;;;;32.32;44.69;98810.34;4331494;33;34251;-94
2023/08/26 09:07:06;;;;;;;15.35;9.75;;;;;;;32.21;43.31;98803.16;4331870;33;34661;-93
2023/08/26 09:09:33;;;;;;;17.62;9.27;;;;;;;32.43;44.21;98801.44;4331837;33;34837;-86
2023/08/26 09:12:21;;;;;;;13.57;8.88;;;;;;;32.52;42.73;98792.59;4332356;33;33349;-91
2023/08/26 09:14:49;;;;;;;12.95;9.70;;;;;;;32.57;43.03;98797.56;4331697;33;34291;-88
2023/08/26 09:17:17;;;;;;;14.25;9.68;;;;;;;32.29;43.21;98799.84;4332303;33;33887;-87
2023/08/26 09:19:55;;;;;;;13.15;9.65;;;;;;;32.65;43.35;98795.09;4331557;33;33818;-86
2023/08/26 09:22:24;;;;;;;13.93;9.90;;;;;;;32.66;42.67;98792.31;4330580;33;34967;-89
2023/08/26 09:24:56;;;;;;;16.27;10.00;;;;;;;32.89;42.60;98792.19;4331345;33;33868;-84
2023/08/26 09:27:24;;;;;;;19.50;9.90;;;;;;;32.98;42.91;98790.56;4329989;33;33715;-90
2023/08/26 09:29:52;;;;;;;17.02;9.63;;;;;;;33.08;42.12;98780.75;4331141;33;34097;-85
2023/08/26 09:32:33;;;;;;;13.73;9.55;;;;;;;33.27;40.70;98785.38;4331045;33;34626;-87
2023/08/26 09:35:15;;;;;;;14.52;9.30;;;;;;;33.42;40.39;98774.13;4330853;33;34290;-84
2023/08/26 09:38:03;;;;;;;13.48;9.45;;;;;;;33.25;40.05;98782.81;4315555;33;33740;-86
2023/08/26 09:40:30;;;;;;;16.33;10.05;;;;;;;32.99;41.08;98776.16;4316242;33;33972;-90
2023/08/26 09:43:03;;;;;;;15.52;10.32;;;;;;;33.15;40.74;98782.78;4316530;33;34153;-94
2023/08/26 09:45:35;;;;;;;13.93;8.40;;;;;;;33.35;40.92;98778.34;4331768;33;34233;-94
2023/08/26 09:48:03;;;;;;;15.68;9.90;;;;;;;33.68;38.92;98781.78;4331620;33;33343;-85
2023/08/26 09:50:31;;;;;;;17.77;10.00;;;;;;;33.64;38.96;98780.31;4331350;33;33919;-86
2023/08/26 09:52:59;;;;;;;13.68;9.38;;;;;;;33.92;38.67;98772.50;4331125;33;34144;-88
2023/08/26 09:55:27;;;;;;;14.70;9.23;;;;;;;33.84;38.03;98778.56;4329506;33;34008;-88
2023/08/26 09:57:54;;;;;;;15.80;9.68;;;;;;;34.08;38.43;98772.81;4330022;33;33786;-92
2023/08/26 10:00:22;;;;;;;16.15;9.43;;;;;;;34.19;38.02;98774.53;4331986;33;34750;-86
2023/08/26 10:02:51;;;;;;;16.00;8.98;;;;;;;34.16;38.34;98774.81;4333156;33;34280;-86
2023/08/26 10:05:22;;;;;;;13.98;9.35;;;;;;;34.16;37.88;98770.28;4345673;33;33872;-91
2023/08/26 10:07:51;;;;;;;17.90;9.90;;;;;;;34.44;37.45;98767.75;4337951;33;33441;-88
2023/08/26 10:10:32;;;;;;;11.15;8.52;;;;;;;34.33;38.59;98772.28;4340061;33;34434;-90
2023/08/26 10:13:03;;;;;;;18.95;9.40;;;;;;;34.53;37.69;98766.94;4331407;33;34997;-96
2023/08/26 10:15:33;;;;;;;15.05;8.75;;;;;;;34.50;37.43;98769.91;4332595;33;33475;-84
2023/08/26 10:18:15;;;;;;;12.85;9.27;;;;;;;34.47;38.26;98764.78;4332814;33;33478;-88
2023/08/26 10:20:44;;;;;;;13.48;9.60;;;;;;;34.44;37.33;98756.97;4355823;32;34080;-85
2023/08/26 10:23:12;;;;;;;16.23;8.88;;;;;;;34.71;37.39;98756.31;4330321;33;35111;-86
2023/08/26 10:25:40;;;;;;;12.95;8.60;;;;;;;35.00;36.62;98756.25;4315942;33;34853;-85
2023/08/26 10:28:08;;;;;;;12.00;8.73;;;;;;;34.84;36.62;98754.16;4316862;33;33758;-90
2023/08/26 10:30:36;;;;;;;11.98;8.40;;;;;;;34.76;36.83;98748.63;4316655;33;33701;-93
2023/08/26 10:33:05;;;;;;;14.73;9.00;;;;;;;35.12;35.98;98743.47;4316790;33;33685;-85
2023/08/26 10:35:32;;;;;;;13.95;8.85;;;;;;;35.13;35.04;98731.72;4316456;33;34583;-87
2023/08/26 10:38:15;;;;;;;13.18;9.18;;;;;;;35.28;35.67;98727.53;4318452;33;33396;-87
2023/08/26 10:40:43;;;;;;;14.35;8.27;;;;;;;35.04;35.02;98723.53;4330724;33;33387;-87
2023/08/26 10:43:12;;;;;;;15.15;9.00;;;;;;;35.40;34.89;98720.97;4330833;33;34963;-87
2023/08/26 10:45:50;;;;;;;13.55;8.90;;;;;;;35.44;35.07;98726.91;4332512;33;32730;-90
2023/08/26 10:48:19;;;;;;;12.77;8.43;;;;;;;35.32;34.33;98710.91;4350053;33;34650;-94
2023/08/26 10:51:01;;;;;;;15.77;7.85;;;;;;;35.31;35.70;98719.16;4332747;33;32952;-88
2023/08/26 10:53:28;;;;;;;13.68;8.13;;;;;;;35.43;33.79;98725.22;4333356;33;33655;-89
2023/08/26 10:56:12;;;;;;;11.55;8.13;;;;;;;35.73;33.87;98722.25;4347709;33;35000;-94
2023/08/26 10:58:44;;;;;;;13.00;7.75;;;;;;;35.79;33.18;98721.63;4356014;32;34257;-96
2023/08/26 11:01:13;;;;;;;11.60;7.32;;;;;;;35.73;32.03;98714.16;4345815;33;34842;-89
2023/08/26 11:03:43;;;;;;;11.57;7.90;;;;;;;35.75;32.16;98709.44;4334498;33;34433;-90
2023/08/26 11:06:12;;;;;;;13.00;7.68;;;;;;;35.55;33.27;98713.25;4346684;33;35117;-94
2023/08/26 11:08:52;;;;;;;11.48;7.60;;;;;;;35.29;32.80;98713.06;4335897;33;33631;-87
2023/08/26 11:11:20;;;;;;;10.50;6.70;;;;;;;35.49;33.55;98703.03;4357548;32;33757;-87
2023/08/26 11:13:47;;;;;;;13.82;7.55;;;;;;;35.51;33.17;98699.22;4346063;33;34514;-84
2023/08/26 11:16:15;;;;;;;11.57;6.93;;;;;;;35.95;32.87;98702.09;4345885;33;33706;-86
2023/08/26 11:18:46;;;;;;;12.60;7.57;;;;;;;35.91;31.94;98702.50;4345436;33;33474;-90
2023/08/26 11:21:14;;;;;;;12.23;7.32;;;;;;;35.86;30.89;98699.44;4332191;33;33921;-88
2023/08/26 11:23:42;;;;;;;13.48;7.25;;;;;;;35.64;31.95;98695.31;4321009;33;34140;-91
2023/08/26 11:26:15;;;;;;;15.60;7.25;;;;;;;35.28;34.36;98701.44;4321679;33;33505;-93
2023/08/26 11:28:43;;;;;;;13.23;6.65;;;;;;;35.54;32.47;98698.09;4331940;33;34212;-85
2023/08/26 11:31:11;;;;;;;10.60;6.78;;;;;;;35.54;32.48;98679.22;4344412;33;33709;-89
2023/08/26 11:33:38;;;;;;;10.43;6.32;;;;;;;35.36;33.24;98684.53;4345069;33;34238;-84
2023/08/26 11:36:06;;;;;;;12.37;6.87;;;;;;;35.63;32.70;98682.84;4345038;33;34267;-86